sensor_id;sensor_type;location;lat;lon;timestamp;P1;durP1;ratioP1;P2;durP2;ratioP2
20935;SDS011;10627;54.514;18.532;2022-10-28T00:04:41;26.33;;;13.93;;
20935;SDS011;10627;54.514;18.532;2022-10-28T00:09:46;21.50;;;11.87;;
20935;SDS011;10627;54.514;18.532;2022-10-28T00:14:51;24.83;;;12.63;;
20935;SDS011;10627;54.514;18.532;2022-10-28T00:20:00;25.07;;;12.77;;
20935;SDS011;10627;54.514;18.532;2022-10-28T00:25:22;24.87;;;11.23;;
20935;SDS011;10627;54.514;18.532;2022-10-28T00:30:44;19.13;;;12.30;;
20935;SDS011;10627;54.514;18.532;2022-10-28T00:36:05;22.30;;;12.40;;
20935;SDS011;10627;54.514;18.532;2022-10-28T00:41:15;21.43;;;12.03;;
20935;SDS011;10627;54.514;18.532;2022-10-28T00:51:44;21.33;;;11.93;;
20935;SDS011;10627;54.514;18.532;2022-10-28T00:56:52;24.63;;;12.17;;
20935;SDS011;10627;54.514;18.532;2022-10-28T01:01:57;21.83;;;12.30;;
20935;SDS011;10627;54.514;18.532;2022-10-28T01:07:18;25.43;;;11.87;;
20935;SDS011;10627;54.514;18.532;2022-10-28T01:23:34;22.10;;;12.60;;
20935;SDS011;10627;54.514;18.532;2022-10-28T01:39:49;20.67;;;12.60;;
20935;SDS011;10627;54.514;18.532;2022-10-28T01:45:06;20.87;;;12.03;;
20935;SDS011;10627;54.514;18.532;2022-10-28T01:55:34;26.70;;;13.73;;
20935;SDS011;10627;54.514;18.532;2022-10-28T02:05:55;21.50;;;12.63;;
20935;SDS011;10627;54.514;18.532;2022-10-28T02:16:21;20.13;;;12.33;;
20935;SDS011;10627;54.514;18.532;2022-10-28T02:26:46;26.93;;;12.83;;
20935;SDS011;10627;54.514;18.532;2022-10-28T02:32:03;18.83;;;12.10;;
20935;SDS011;10627;54.514;18.532;2022-10-28T02:37:20;19.63;;;12.50;;
20935;SDS011;10627;54.514;18.532;2022-10-28T02:42:26;26.63;;;12.63;;
20935;SDS011;10627;54.514;18.532;2022-10-28T02:47:32;24.73;;;12.93;;
20935;SDS011;10627;54.514;18.532;2022-10-28T02:52:39;21.37;;;12.70;;
20935;SDS011;10627;54.514;18.532;2022-10-28T02:57:55;19.17;;;11.53;;
20935;SDS011;10627;54.514;18.532;2022-10-28T03:03:16;16.63;;;10.33;;
20935;SDS011;10627;54.514;18.532;2022-10-28T03:08:18;20.10;;;11.00;;
20935;SDS011;10627;54.514;18.532;2022-10-28T03:13:18;18.90;;;11.33;;
20935;SDS011;10627;54.514;18.532;2022-10-28T03:18:29;16.93;;;10.77;;
20935;SDS011;10627;54.514;18.532;2022-10-28T03:23:38;15.50;;;10.57;;
20935;SDS011;10627;54.514;18.532;2022-10-28T03:28:45;16.00;;;9.70;;
20935;SDS011;10627;54.514;18.532;2022-10-28T03:33:55;24.30;;;10.73;;
20935;SDS011;10627;54.514;18.532;2022-10-28T03:39:01;18.20;;;11.07;;
20935;SDS011;10627;54.514;18.532;2022-10-28T03:44:20;19.20;;;10.73;;
20935;SDS011;10627;54.514;18.532;2022-10-28T03:56:23;17.93;;;9.90;;
20935;SDS011;10627;54.514;18.532;2022-10-28T04:01:26;18.03;;;10.70;;
20935;SDS011;10627;54.514;18.532;2022-10-28T04:06:31;18.80;;;11.00;;
20935;SDS011;10627;54.514;18.532;2022-10-28T04:11:32;24.20;;;11.77;;
20935;SDS011;10627;54.514;18.532;2022-10-28T04:16:33;21.47;;;12.53;;
20935;SDS011;10627;54.514;18.532;2022-10-28T04:21:34;23.33;;;12.67;;
20935;SDS011;10627;54.514;18.532;2022-10-28T04:26:35;18.47;;;11.83;;
20935;SDS011;10627;54.514;18.532;2022-10-28T04:31:37;19.37;;;11.33;;
20935;SDS011;10627;54.514;18.532;2022-10-28T04:36:38;18.40;;;12.17;;
20935;SDS011;10627;54.514;18.532;2022-10-28T04:41:39;18.83;;;10.93;;
20935;SDS011;10627;54.514;18.532;2022-10-28T04:46:40;17.13;;;11.07;;
20935;SDS011;10627;54.514;18.532;2022-10-28T04:51:40;22.30;;;11.17;;
20935;SDS011;10627;54.514;18.532;2022-10-28T04:56:45;19.53;;;11.47;;
20935;SDS011;10627;54.514;18.532;2022-10-28T05:01:46;22.00;;;11.73;;
20935;SDS011;10627;54.514;18.532;2022-10-28T05:06:47;22.47;;;12.03;;
20935;SDS011;10627;54.514;18.532;2022-10-28T07:25:53;29.92;;;16.48;;
20935;SDS011;10627;54.514;18.532;2022-10-28T07:36:28;35.05;;;16.02;;
20935;SDS011;10627;54.514;18.532;2022-10-28T07:47:13;27.05;;;12.88;;
20935;SDS011;10627;54.514;18.532;2022-10-28T07:52:17;24.50;;;12.63;;
20935;SDS011;10627;54.514;18.532;2022-10-28T07:57:29;16.73;;;11.35;;
20935;SDS011;10627;54.514;18.532;2022-10-28T08:02:30;25.35;;;11.98;;
20935;SDS011;10627;54.514;18.532;2022-10-28T08:07:36;19.30;;;11.57;;
20935;SDS011;10627;54.514;18.532;2022-10-28T08:12:56;18.10;;;10.50;;
20935;SDS011;10627;54.514;18.532;2022-10-28T08:23:19;17.63;;;10.30;;
20935;SDS011;10627;54.514;18.532;2022-10-28T08:35:23;15.20;;;9.70;;
20935;SDS011;10627;54.514;18.532;2022-10-28T08:46:03;13.27;;;8.77;;
20935;SDS011;10627;54.514;18.532;2022-10-28T08:51:20;12.75;;;8.45;;
20935;SDS011;10627;54.514;18.532;2022-10-28T09:02:27;13.98;;;8.60;;
20935;SDS011;10627;54.514;18.532;2022-10-28T09:07:46;15.25;;;8.27;;
20935;SDS011;10627;54.514;18.532;2022-10-28T09:12:54;14.60;;;8.30;;
20935;SDS011;10627;54.514;18.532;2022-10-28T09:18:18;12.75;;;7.45;;
20935;SDS011;10627;54.514;18.532;2022-10-28T09:23:43;12.88;;;7.88;;
20935;SDS011;10627;54.514;18.532;2022-10-28T09:35:41;14.05;;;8.18;;
20935;SDS011;10627;54.514;18.532;2022-10-28T09:41:23;17.73;;;8.07;;
20935;SDS011;10627;54.514;18.532;2022-10-28T10:04:36;12.38;;;7.20;;
20935;SDS011;10627;54.514;18.532;2022-10-28T10:09:51;10.18;;;6.80;;
20935;SDS011;10627;54.514;18.532;2022-10-28T10:21:02;13.27;;;7.30;;
20935;SDS011;10627;54.514;18.532;2022-10-28T10:26:05;13.23;;;7.32;;
20935;SDS011;10627;54.514;18.532;2022-10-28T10:37:56;10.77;;;6.85;;
20935;SDS011;10627;54.514;18.532;2022-10-28T10:48:14;16.42;;;6.95;;
20935;SDS011;10627;54.514;18.532;2022-10-28T10:53:27;14.50;;;5.60;;
20935;SDS011;10627;54.514;18.532;2022-10-28T10:58:39;12.45;;;5.60;;
20935;SDS011;10627;54.514;18.532;2022-10-28T11:04:07;9.32;;;4.53;;
20935;SDS011;10627;54.514;18.532;2022-10-28T11:09:14;7.28;;;4.45;;
20935;SDS011;10627;54.514;18.532;2022-10-28T11:14:19;9.93;;;4.53;;
20935;SDS011;10627;54.514;18.532;2022-10-28T11:30:31;8.43;;;4.18;;
20935;SDS011;10627;54.514;18.532;2022-10-28T13:16:09;16.52;;;8.05;;
20935;SDS011;10627;54.514;18.532;2022-10-28T13:28:40;17.02;;;8.27;;
20935;SDS011;10627;54.514;18.532;2022-10-28T13:41:24;23.75;;;7.53;;
20935;SDS011;10627;54.514;18.532;2022-10-28T14:53:39;17.60;;;10.13;;
20935;SDS011;10627;54.514;18.532;2022-10-28T15:09:42;18.35;;;10.50;;
20935;SDS011;10627;54.514;18.532;2022-10-28T15:14:54;20.08;;;11.30;;
20935;SDS011;10627;54.514;18.532;2022-10-28T15:51:21;23.92;;;12.23;;
20935;SDS011;10627;54.514;18.532;2022-10-28T16:48:40;32.28;;;13.10;;
20935;SDS011;10627;54.514;18.532;2022-10-28T16:53:42;25.10;;;14.15;;
20935;SDS011;10627;54.514;18.532;2022-10-28T16:58:46;31.15;;;15.55;;
20935;SDS011;10627;54.514;18.532;2022-10-28T17:03:47;38.63;;;15.93;;
20935;SDS011;10627;54.514;18.532;2022-10-28T17:08:49;35.22;;;15.25;;
20935;SDS011;10627;54.514;18.532;2022-10-28T17:13:49;39.63;;;16.98;;
20935;SDS011;10627;54.514;18.532;2022-10-28T17:18:50;27.83;;;16.13;;
20935;SDS011;10627;54.514;18.532;2022-10-28T17:23:52;39.28;;;16.15;;
20935;SDS011;10627;54.514;18.532;2022-10-28T17:28:53;30.40;;;16.38;;
20935;SDS011;10627;54.514;18.532;2022-10-28T17:33:54;31.55;;;15.93;;
20935;SDS011;10627;54.514;18.532;2022-10-28T17:38:55;29.05;;;17.90;;
20935;SDS011;10627;54.514;18.532;2022-10-28T17:43:56;30.75;;;16.98;;
20935;SDS011;10627;54.514;18.532;2022-10-28T17:48:56;29.63;;;18.35;;
20935;SDS011;10627;54.514;18.532;2022-10-28T17:53:57;33.10;;;18.30;;
20935;SDS011;10627;54.514;18.532;2022-10-28T17:58:58;33.55;;;18.77;;
20935;SDS011;10627;54.514;18.532;2022-10-28T18:04:01;32.90;;;19.42;;
20935;SDS011;10627;54.514;18.532;2022-10-28T18:09:10;35.92;;;20.55;;
20935;SDS011;10627;54.514;18.532;2022-10-28T18:14:14;39.72;;;20.05;;
20935;SDS011;10627;54.514;18.532;2022-10-28T18:19:14;32.85;;;19.77;;
20935;SDS011;10627;54.514;18.532;2022-10-28T18:24:15;36.92;;;21.95;;
20935;SDS011;10627;54.514;18.532;2022-10-28T18:29:20;38.05;;;21.42;;
20935;SDS011;10627;54.514;18.532;2022-10-28T18:34:21;36.42;;;21.10;;
20935;SDS011;10627;54.514;18.532;2022-10-28T18:39:26;44.92;;;23.15;;
20935;SDS011;10627;54.514;18.532;2022-10-28T18:44:28;42.05;;;23.13;;
20935;SDS011;10627;54.514;18.532;2022-10-28T18:49:31;37.25;;;22.48;;
20935;SDS011;10627;54.514;18.532;2022-10-28T18:54:31;37.45;;;22.27;;
20935;SDS011;10627;54.514;18.532;2022-10-28T18:59:33;36.00;;;21.48;;
20935;SDS011;10627;54.514;18.532;2022-10-28T19:04:34;42.42;;;20.35;;
20935;SDS011;10627;54.514;18.532;2022-10-28T19:09:34;37.47;;;20.75;;
20935;SDS011;10627;54.514;18.532;2022-10-28T19:14:35;43.80;;;22.53;;
20935;SDS011;10627;54.514;18.532;2022-10-28T19:19:36;45.30;;;20.87;;
20935;SDS011;10627;54.514;18.532;2022-10-28T19:24:37;51.08;;;22.88;;
20935;SDS011;10627;54.514;18.532;2022-10-28T19:29:38;52.87;;;24.83;;
20935;SDS011;10627;54.514;18.532;2022-10-28T19:34:39;51.63;;;26.02;;
20935;SDS011;10627;54.514;18.532;2022-10-28T19:39:42;43.13;;;25.55;;
20935;SDS011;10627;54.514;18.532;2022-10-28T19:44:46;45.97;;;25.33;;
20935;SDS011;10627;54.514;18.532;2022-10-28T19:49:47;42.57;;;21.23;;
20935;SDS011;10627;54.514;18.532;2022-10-28T19:54:47;35.65;;;18.98;;
20935;SDS011;10627;54.514;18.532;2022-10-28T19:59:52;35.38;;;18.00;;
20935;SDS011;10627;54.514;18.532;2022-10-28T20:04:53;24.40;;;15.13;;
20935;SDS011;10627;54.514;18.532;2022-10-28T20:09:56;28.37;;;15.70;;
20935;SDS011;10627;54.514;18.532;2022-10-28T20:14:58;24.80;;;14.07;;
20935;SDS011;10627;54.514;18.532;2022-10-28T20:19:59;26.77;;;14.25;;
20935;SDS011;10627;54.514;18.532;2022-10-28T20:25:00;36.45;;;13.85;;
20935;SDS011;10627;54.514;18.532;2022-10-28T20:30:08;30.13;;;14.05;;
20935;SDS011;10627;54.514;18.532;2022-10-28T20:35:10;21.45;;;14.05;;
20935;SDS011;10627;54.514;18.532;2022-10-28T20:40:11;25.92;;;13.90;;
20935;SDS011;10627;54.514;18.532;2022-10-28T20:45:12;28.52;;;13.52;;
20935;SDS011;10627;54.514;18.532;2022-10-28T20:50:18;22.23;;;13.10;;
20935;SDS011;10627;54.514;18.532;2022-10-28T20:55:19;23.33;;;13.27;;
20935;SDS011;10627;54.514;18.532;2022-10-28T21:00:20;31.98;;;13.90;;
20935;SDS011;10627;54.514;18.532;2022-10-28T21:05:20;29.93;;;12.63;;
20935;SDS011;10627;54.514;18.532;2022-10-28T21:10:21;26.77;;;13.95;;
20935;SDS011;10627;54.514;18.532;2022-10-28T21:15:22;23.47;;;12.07;;
20935;SDS011;10627;54.514;18.532;2022-10-28T21:20:24;30.80;;;12.13;;
20935;SDS011;10627;54.514;18.532;2022-10-28T21:25:25;24.92;;;14.20;;
20935;SDS011;10627;54.514;18.532;2022-10-28T21:30:27;18.90;;;11.85;;
20935;SDS011;10627;54.514;18.532;2022-10-28T21:35:29;23.30;;;11.38;;
20935;SDS011;10627;54.514;18.532;2022-10-28T21:40:31;26.48;;;11.95;;
20935;SDS011;10627;54.514;18.532;2022-10-28T21:45:32;18.67;;;11.98;;
20935;SDS011;10627;54.514;18.532;2022-10-28T21:50:33;18.05;;;10.93;;
20935;SDS011;10627;54.514;18.532;2022-10-28T21:55:34;23.88;;;12.45;;
20935;SDS011;10627;54.514;18.532;2022-10-28T22:00:34;20.80;;;11.87;;
20935;SDS011;10627;54.514;18.532;2022-10-28T22:05:35;24.00;;;13.43;;
20935;SDS011;10627;54.514;18.532;2022-10-28T22:10:36;29.20;;;12.43;;
20935;SDS011;10627;54.514;18.532;2022-10-28T22:15:37;26.87;;;12.60;;
20935;SDS011;10627;54.514;18.532;2022-10-28T22:20:37;25.90;;;13.23;;
20935;SDS011;10627;54.514;18.532;2022-10-28T22:25:38;28.57;;;13.30;;
20935;SDS011;10627;54.514;18.532;2022-10-28T22:30:40;22.17;;;13.43;;
20935;SDS011;10627;54.514;18.532;2022-10-28T22:35:40;24.67;;;12.68;;
20935;SDS011;10627;54.514;18.532;2022-10-28T22:40:41;29.43;;;11.97;;
20935;SDS011;10627;54.514;18.532;2022-10-28T22:45:42;24.05;;;12.05;;
20935;SDS011;10627;54.514;18.532;2022-10-28T22:50:44;23.17;;;11.40;;
20935;SDS011;10627;54.514;18.532;2022-10-28T22:55:45;19.02;;;10.82;;
20935;SDS011;10627;54.514;18.532;2022-10-28T23:00:46;22.07;;;11.17;;
20935;SDS011;10627;54.514;18.532;2022-10-28T23:05:49;19.33;;;11.00;;
20935;SDS011;10627;54.514;18.532;2022-10-28T23:10:50;21.63;;;11.87;;
20935;SDS011;10627;54.514;18.532;2022-10-28T23:15:51;25.63;;;12.00;;
20935;SDS011;10627;54.514;18.532;2022-10-28T23:20:53;18.73;;;11.43;;
20935;SDS011;10627;54.514;18.532;2022-10-28T23:25:55;21.27;;;10.73;;
20935;SDS011;10627;54.514;18.532;2022-10-28T23:30:58;19.13;;;11.30;;
20935;SDS011;10627;54.514;18.532;2022-10-28T23:36:02;19.73;;;10.50;;
20935;SDS011;10627;54.514;18.532;2022-10-28T23:41:05;22.13;;;10.38;;
20935;SDS011;10627;54.514;18.532;2022-10-28T23:46:31;21.63;;;11.30;;
20935;SDS011;10627;54.514;18.532;2022-10-28T23:51:32;27.63;;;10.77;;
20935;SDS011;10627;54.514;18.532;2022-10-28T23:56:37;19.53;;;10.13;;
